Goltry, Oklahoma
Current Conditions -  °F | °C
As of 7:58 AM on Friday 28 Nov 2014 (Local Time) from KEND Reporting Station
Clear Clear  
Wind Chill: 31°   Ceiling: Unl
Heat Index: 38°   Visibility: 10mi
Dew Point: 30°   Wind: 10mph
Humidity: 71%   Direction: 180°S
Pressure: 30.04"   Gusts: NA
Location:  36.53°N, 98.15°W
Report Text: KEND 281358Z AUTO 18009KT 10SM CLR 04/M01 A3004 RMK AO2 SLP182 T00351013 $
Loading
Personal Weather Stations






























Interactive Weather Map New forecast layout! Learn more

10-Day Weather Forecast

Advertisements
Track Severe Weather on mobile